createdAt,value
2024-05-09T00:02:20.639Z,98054.44
2024-05-09T00:05:29.559Z,98054.97
2024-05-09T00:08:35.243Z,98050.50
2024-05-09T00:11:41.469Z,98058.25
2024-05-09T00:14:47.318Z,98051.16
2024-05-09T00:17:53.852Z,98051.94
2024-05-09T00:21:02.665Z,98049.69
2024-05-09T00:24:09.237Z,98047.34
2024-05-09T00:27:14.962Z,98047.13
2024-05-09T00:30:28.218Z,98057.78
2024-05-09T00:33:39.539Z,98053.28
2024-05-09T00:36:48.302Z,98053.03
2024-05-09T00:39:53.869Z,98051.03
2024-05-09T00:42:59.870Z,98047.41
2024-05-09T00:46:05.870Z,98046.66
2024-05-09T00:49:12.593Z,98046.41
2024-05-09T00:52:21.054Z,98046.06
2024-05-09T00:55:27.616Z,98054.03
2024-05-09T00:58:33.538Z,98050.72
2024-05-09T01:01:39.933Z,98056.13
2024-05-09T01:04:45.746Z,98055.53
2024-05-09T01:07:54.603Z,98056.31
2024-05-09T01:11:00.320Z,98056.84
2024-05-09T01:14:06.531Z,98046.28
2024-05-09T01:17:12.286Z,98043.50
2024-05-09T01:20:22.924Z,98050.66
2024-05-09T01:23:36.237Z,98046.09
2024-05-09T01:26:42.571Z,98043.47
2024-05-09T01:29:48.210Z,98050.41
2024-05-09T01:32:54.523Z,98043.94
2024-05-09T01:36:00.285Z,98054.16
2024-05-09T01:39:10.172Z,98046.72
2024-05-09T01:42:16.594Z,98041.09
2024-05-09T01:45:22.656Z,98043.34
2024-05-09T01:48:28.352Z,98041.06
2024-05-09T01:51:34.477Z,98043.34
2024-05-09T01:54:42.900Z,98030.28
2024-05-09T01:57:49.055Z,98033.91
2024-05-09T02:00:56.260Z,98018.75
2024-05-09T02:04:02.735Z,98020.59
2024-05-09T02:07:08.871Z,98025.25
2024-05-09T02:10:23.498Z,98037.84
2024-05-09T02:13:35.864Z,98032.56
2024-05-09T02:16:42.028Z,98023.84
2024-05-09T02:19:47.733Z,98029.06
2024-05-09T02:22:54.092Z,98018.84
2024-05-09T02:26:02.473Z,98015.31
2024-05-09T02:29:08.536Z,98012.22
2024-05-09T02:32:14.841Z,98013.03
2024-05-09T02:35:21.051Z,98015.09
2024-05-09T02:38:27.141Z,98011.25
2024-05-09T02:41:33.397Z,98010.25
2024-05-09T02:44:39.066Z,98005.91
2024-05-09T02:47:42.534Z,98011.78
2024-05-09T02:50:48.239Z,98016.16
2024-05-09T02:53:51.673Z,98018.72
2024-05-09T02:56:59.979Z,98014.66
2024-05-09T03:00:03.688Z,98016.38
2024-05-09T03:03:14.063Z,98011.81
2024-05-09T03:06:19.972Z,98017.72
2024-05-09T03:09:26.755Z,98017.44
2024-05-09T03:12:33.613Z,98026.41
2024-05-09T03:15:40.208Z,98027.19
2024-05-09T03:18:46.578Z,98034.09
2024-05-09T03:21:49.604Z,98030.25
2024-05-09T03:24:55.633Z,98040.53
2024-05-09T03:28:01.358Z,98041.28
2024-05-09T03:31:08.063Z,98043.59
2024-05-09T03:34:14.013Z,98041.03
2024-05-09T03:37:20.014Z,98046.66
2024-05-09T03:40:28.988Z,98047.16
2024-05-09T03:43:39.324Z,98049.47
2024-05-09T03:46:44.981Z,98046.13
2024-05-09T03:49:48.391Z,98051.00
2024-05-09T03:52:55.181Z,98049.22
2024-05-09T03:55:58.611Z,98049.22
2024-05-09T03:59:06.979Z,98053.59
2024-05-09T04:02:13.154Z,98057.69
2024-05-09T04:05:16.732Z,98066.91
2024-05-09T04:08:53.905Z,98066.41
2024-05-09T04:12:23.905Z,98067.13
2024-05-09T04:15:29.998Z,98074.06
2024-05-09T04:18:36.177Z,98069.72
2024-05-09T04:21:39.160Z,98068.69
2024-05-09T04:24:45.379Z,98078.94
2024-05-09T04:27:48.347Z,98072.28
2024-05-09T04:30:57.160Z,98075.88
2024-05-09T04:34:00.284Z,98073.81
2024-05-09T04:37:07.239Z,98072.53
2024-05-09T04:40:20.518Z,98076.59
2024-05-09T04:43:30.272Z,98072.94
2024-05-09T04:46:35.938Z,98075.50
2024-05-09T04:49:45.355Z,98077.03
2024-05-09T04:52:48.421Z,98087.72
2024-05-09T04:55:54.435Z,98083.84
2024-05-09T04:59:00.056Z,98083.31
2024-05-09T05:02:06.123Z,98089.66
2024-05-09T05:05:12.183Z,98090.38
2024-05-09T05:08:19.599Z,98080.97
2024-05-09T05:11:25.501Z,98077.63
2024-05-09T05:14:29.109Z,98096.22
2024-05-09T05:17:37.699Z,98095.16
2024-05-09T05:20:41.676Z,98103.41
2024-05-09T05:23:47.351Z,98099.88
2024-05-09T05:26:50.711Z,98117.53
2024-05-09T05:29:56.252Z,98115.59
2024-05-09T05:33:05.220Z,98120.19
2024-05-09T05:36:11.050Z,98122.63
2024-05-09T05:39:17.096Z,98122.22
2024-05-09T05:42:20.051Z,98127.13
2024-05-09T05:45:26.073Z,98121.78
2024-05-09T05:48:34.944Z,98122.09
2024-05-09T05:51:38.357Z,98122.06
2024-05-09T05:54:43.904Z,98127.19
2024-05-09T05:57:49.991Z,98130.25
2024-05-09T06:00:53.880Z,98129.13
2024-05-09T06:04:02.726Z,98132.78
2024-05-09T06:07:05.890Z,98141.81
2024-05-09T06:10:17.588Z,98137.75
2024-05-09T06:13:24.703Z,98141.13
2024-05-09T06:16:30.787Z,98132.97
2024-05-09T06:19:36.520Z,98131.72
2024-05-09T06:22:42.643Z,98134.53
2024-05-09T06:25:46.108Z,98144.47
2024-05-09T06:28:52.292Z,98145.75
2024-05-09T06:31:57.109Z,98140.09
2024-05-09T06:35:08.849Z,98145.19
2024-05-09T06:38:12.236Z,98151.34
2024-05-09T06:41:18.674Z,98151.34
2024-05-09T06:44:24.373Z,98146.75
2024-05-09T06:47:27.985Z,98149.34
2024-05-09T06:50:38.437Z,98152.94
2024-05-09T06:53:43.004Z,98151.44
2024-05-09T06:56:48.678Z,98157.34
2024-05-09T06:59:52.415Z,98151.19
2024-05-09T07:03:00.110Z,98164.53
2024-05-09T07:06:10.559Z,98166.34
2024-05-09T07:09:13.862Z,98159.19
2024-05-09T07:12:20.070Z,98157.41
2024-05-09T07:15:23.237Z,98158.41
2024-05-09T07:18:29.900Z,98161.22
2024-05-09T07:21:35.671Z,98162.78
2024-05-09T07:24:41.792Z,98168.94
2024-05-09T07:27:47.035Z,98169.44
2024-05-09T07:30:53.350Z,98170.94
2024-05-09T07:33:56.287Z,98174.00
2024-05-09T07:37:06.299Z,98177.84
2024-05-09T07:40:12.081Z,98182.97
2024-05-09T07:43:23.713Z,98181.19
2024-05-09T07:47:20.779Z,98186.06
2024-05-09T07:51:32.820Z,98183.97
2024-05-09T07:53:38.726Z,98185.75
2024-05-09T07:56:47.113Z,98186.81
2024-05-09T07:59:50.144Z,98183.00
2024-05-09T08:02:56.391Z,98182.78
2024-05-09T08:05:59.306Z,98190.22
2024-05-09T08:09:13.591Z,98183.53
2024-05-09T08:12:19.953Z,98190.19
2024-05-09T08:15:33.292Z,98186.84
2024-05-09T08:18:41.478Z,98186.56
2024-05-09T08:21:48.691Z,98183.00
2024-05-09T08:24:54.742Z,98191.69
2024-05-09T08:28:00.518Z,98198.03
2024-05-09T08:31:06.865Z,98192.50
2024-05-09T08:34:13.057Z,98196.88
2024-05-09T08:37:22.317Z,98196.06
2024-05-09T08:40:36.316Z,98183.78
2024-05-09T08:43:44.599Z,98188.63
2024-05-09T08:46:48.272Z,98193.50
2024-05-09T08:49:58.505Z,98188.13
2024-05-09T08:53:04.379Z,98185.34
2024-05-09T08:56:12.196Z,98183.81
2024-05-09T08:59:23.812Z,98188.44
2024-05-09T09:02:30.747Z,98191.22
2024-05-09T09:05:37.272Z,98190.69
2024-05-09T09:08:43.800Z,98183.16
2024-05-09T09:11:52.123Z,98191.41
2024-05-09T09:14:55.583Z,98201.19
2024-05-09T09:18:01.979Z,98195.03
2024-05-09T09:21:10.222Z,98191.75
2024-05-09T09:24:22.738Z,98192.00
2024-05-09T09:27:37.472Z,98191.25
2024-05-09T09:30:41.642Z,98194.84
2024-05-09T09:33:47.982Z,98191.78
2024-05-09T09:36:56.110Z,98183.81
2024-05-09T09:40:02.600Z,98182.03
2024-05-09T09:43:14.557Z,98189.94
2024-05-09T09:46:22.850Z,98175.28
2024-05-09T09:49:26.576Z,98175.28
2024-05-09T09:52:33.007Z,98176.00
2024-05-09T09:55:37.503Z,98174.72
2024-05-09T09:58:48.380Z,98183.44
2024-05-09T10:01:51.656Z,98178.81
2024-05-09T10:04:58.099Z,98171.66
2024-05-09T10:08:05.427Z,98182.94
2024-05-09T10:11:11.569Z,98171.66
2024-05-09T10:14:20.890Z,98172.84
2024-05-09T10:17:27.783Z,98176.00
